Time;durP1;ratioP1;P1;durP2;ratioP2;P2;SDS_P1;SDS_P2;PMS_P1;PMS_P2;Temp;Humidity;BMP_temperature;BMP_pressure;BME280_temperature;BME280_humidity;BME280_pressure;Samples;Min_cycle;Max_cycle;Signal;HPM_P1;HPM_P2
2022/11/27 00:01:19;;;;;;;43.27;27.60;;;5.80;99.90;;;;;;5152229;27;20580;-71
2022/11/27 00:03:48;;;;;;;41.80;22.83;;;5.80;99.90;;;;;;5154253;27;20194;-66
2022/11/27 00:06:18;;;;;;;42.77;22.70;;;5.80;99.90;;;;;;5148660;27;20186;-84
2022/11/27 00:08:47;;;;;;;36.93;23.27;;;5.70;99.90;;;;;;5133799;27;20281;-85
2022/11/27 00:11:18;;;;;;;38.70;22.57;;;5.70;99.90;;;;;;5137145;27;20190;-85
2022/11/27 00:13:47;;;;;;;37.33;20.93;;;5.80;99.90;;;;;;5133517;27;20204;-74
2022/11/27 00:16:17;;;;;;;37.83;23.03;;;5.80;99.90;;;;;;5133382;27;20205;-78
2022/11/27 00:18:46;;;;;;;38.20;21.60;;;5.80;99.90;;;;;;5133135;27;20194;-73
2022/11/27 00:21:16;;;;;;;36.20;21.87;;;5.90;99.90;;;;;;5143139;27;20676;-65
2022/11/27 00:23:44;;;;;;;37.13;22.03;;;5.90;99.90;;;;;;5133080;27;20195;-66
2022/11/27 00:26:13;;;;;;;34.70;20.83;;;5.90;99.90;;;;;;5137304;27;20688;-77
2022/11/27 00:28:42;;;;;;;34.93;21.17;;;5.90;99.90;;;;;;5142301;27;20191;-68
2022/11/27 00:31:14;;;;;;;39.10;21.03;;;5.80;99.90;;;;;;5150891;27;20569;-67
2022/11/27 00:33:44;;;;;;;41.30;22.50;;;5.80;99.90;;;;;;5153360;27;20194;-70
2022/11/27 00:36:14;;;;;;;39.17;21.57;;;5.80;99.90;;;;;;5153523;27;20252;-73
2022/11/27 00:38:42;;;;;;;35.00;21.87;;;5.70;99.90;;;;;;5153882;27;20194;-84
2022/11/27 00:41:12;;;;;;;38.10;21.60;;;5.70;99.90;;;;;;5138209;27;20722;-71
2022/11/27 00:43:40;;;;;;;33.53;20.17;;;5.70;99.90;;;;;;5144208;27;20210;-66
2022/11/27 09:07:39;;;;;;;22.77;13.20;;;18.70;73.60;;;;;;5109427;27;20362;-67
2022/11/27 09:10:08;;;;;;;22.70;15.07;;;15.50;59.70;;;;;;5102757;28;20200;-67
2022/11/27 09:12:37;;;;;;;24.53;15.43;;;13.00;70.80;;;;;;5105217;28;20196;-67
2022/11/27 09:15:11;;;;;;;25.10;16.80;;;11.30;84.40;;;;;;5093488;28;20193;-65
2022/11/27 09:17:40;;;;;;;26.97;17.17;;;10.10;95.20;;;;;;5107718;28;20211;-66
2022/11/27 09:20:09;;;;;;;28.43;16.80;;;9.40;99.90;;;;;;5109009;28;20687;-69
2022/11/27 09:22:39;;;;;;;28.10;17.60;;;8.80;99.90;;;;;;5109026;28;20199;-66
2022/11/27 09:25:08;;;;;;;28.17;18.67;;;8.60;99.90;;;;;;5109355;28;20290;-69
2022/11/27 09:27:37;;;;;;;27.57;18.27;;;8.30;99.90;;;;;;5108882;28;20606;-69
2022/11/27 09:30:08;;;;;;;30.03;19.33;;;8.20;99.90;;;;;;5109180;28;20228;-67
2022/11/27 09:32:36;;;;;;;32.30;19.27;;;8.20;99.90;;;;;;5108987;28;20210;-68
2022/11/27 09:35:05;;;;;;;33.33;20.03;;;8.20;99.90;;;;;;5108549;28;20245;-70
2022/11/27 09:37:34;;;;;;;33.87;20.47;;;8.20;99.90;;;;;;5108684;28;20735;-67
2022/11/27 09:40:04;;;;;;;35.07;21.30;;;8.10;99.90;;;;;;5108913;28;20188;-71
2022/11/27 09:42:39;;;;;;;35.97;20.00;;;8.10;99.90;;;;;;5108284;28;20204;-71
2022/11/27 09:45:15;;;;;;;36.43;22.77;;;8.00;99.90;;;;;;5108726;28;20197;-72
2022/11/27 09:47:49;;;;;;;36.23;20.90;;;8.00;99.90;;;;;;5108629;28;20697;-71
2022/11/27 09:50:21;;;;;;;40.33;23.00;;;7.90;99.90;;;;;;5108807;28;20204;-66
2022/11/27 09:52:53;;;;;;;37.97;21.63;;;7.90;99.90;;;;;;5107154;28;20287;-70
2022/11/27 09:55:29;;;;;;;39.20;22.43;;;7.80;99.90;;;;;;5108578;28;20234;-70
2022/11/27 09:58:01;;;;;;;39.97;23.40;;;7.80;99.90;;;;;;5108517;28;20199;-67
2022/11/27 10:00:30;;;;;;;41.23;23.20;;;7.90;99.90;;;;;;5108401;28;20231;-69
2022/11/27 10:02:59;;;;;;;48.87;27.67;;;8.00;99.90;;;;;;5108118;28;20183;-66
2022/11/27 10:05:35;;;;;;;45.00;25.70;;;7.90;99.90;;;;;;5108268;28;20598;-65
2022/11/27 10:08:29;;;;;;;46.63;26.77;;;7.80;99.90;;;;;;5108266;28;20587;-69
2022/11/27 10:11:09;;;;;;;44.53;25.03;;;7.70;99.90;;;;;;5107651;28;20223;-68
2022/11/27 10:14:01;;;;;;;45.50;24.70;;;7.80;99.90;;;;;;5106921;28;20206;-72
2022/11/27 10:16:38;;;;;;;44.47;24.33;;;7.80;99.90;;;;;;5108144;28;20199;-67
2022/11/27 10:19:25;;;;;;;41.13;24.13;;;7.90;99.90;;;;;;5094200;28;20190;-68
2022/11/27 10:21:59;;;;;;;44.13;25.07;;;7.80;99.90;;;;;;5094165;28;20670;-67
2022/11/27 10:24:37;;;;;;;43.10;25.83;;;7.80;99.90;;;;;;5094477;28;20197;-68
2022/11/27 10:27:16;;;;;;;42.47;24.47;;;7.80;99.90;;;;;;5074595;28;20234;-70
2022/11/27 10:29:51;;;;;;;45.90;25.40;;;7.80;99.90;;;;;;5072619;28;20580;-67
2022/11/27 10:32:21;;;;;;;47.93;25.67;;;7.80;99.90;;;;;;5078425;28;20200;-68
2022/11/27 10:35:13;;;;;;;47.77;26.53;;;7.90;99.90;;;;;;5073661;28;20254;-67
2022/11/27 10:37:45;;;;;;;44.73;26.43;;;7.80;99.90;;;;;;5078451;28;20193;-67
2022/11/27 10:40:22;;;;;;;53.17;29.40;;;7.90;99.90;;;;;;5089259;28;20226;-69
2022/11/27 10:43:00;;;;;;;53.50;31.37;;;7.90;99.90;;;;;;5093913;28;20646;-68
2022/11/27 10:45:38;;;;;;;51.53;31.07;;;8.00;99.90;;;;;;5094210;28;20249;-66
2022/11/27 10:48:06;;;;;;;57.23;32.17;;;8.10;99.90;;;;;;5093912;28;20215;-66
2022/11/27 10:50:35;;;;;;;56.13;32.33;;;8.10;99.90;;;;;;5089703;28;20247;-66
2022/11/27 10:53:06;;;;;;;62.70;34.13;;;8.00;99.90;;;;;;5084552;28;20566;-67
2022/11/27 10:55:48;;;;;;;67.27;35.17;;;7.90;99.90;;;;;;5093955;28;20654;-67
2022/11/27 10:58:27;;;;;;;96.07;51.23;;;7.80;99.90;;;;;;5093850;28;20192;-67
2022/11/27 11:01:05;;;;;;;72.30;37.63;;;7.80;99.90;;;;;;5093649;28;20203;-69
2022/11/27 11:03:35;;;;;;;66.63;38.20;;;7.80;99.90;;;;;;5093503;28;20241;-67
2022/11/27 11:06:07;;;;;;;63.53;35.80;;;7.80;99.90;;;;;;5082321;28;20236;-67
2022/11/27 11:09:02;;;;;;;62.17;35.23;;;7.90;99.90;;;;;;5073340;28;20202;-68
2022/11/27 11:11:30;;;;;;;60.03;33.77;;;8.00;99.90;;;;;;5082875;28;20203;-66
2022/11/27 11:14:00;;;;;;;60.40;33.53;;;8.00;99.90;;;;;;5093348;28;20547;-67
2022/11/27 11:16:30;;;;;;;62.17;34.53;;;8.10;99.90;;;;;;5093612;28;20212;-70
2022/11/27 11:19:05;;;;;;;49.00;28.73;;;8.00;99.90;;;;;;5093521;28;20566;-69
2022/11/27 11:21:38;;;;;;;43.73;26.83;;;8.00;99.90;;;;;;5093307;28;20195;-68
2022/11/27 11:24:13;;;;;;;40.80;25.27;;;7.90;99.90;;;;;;5093093;28;20220;-68
2022/11/27 11:26:46;;;;;;;41.20;24.57;;;7.90;99.90;;;;;;5093273;28;20303;-68
2022/11/27 11:29:34;;;;;;;43.30;25.60;;;7.90;99.90;;;;;;5092160;28;20230;-74
2022/11/27 11:32:09;;;;;;;56.87;33.43;;;7.80;99.90;;;;;;5092963;28;20662;-67
2022/11/27 11:34:43;;;;;;;44.20;23.30;;;7.70;99.90;;;;;;5093152;28;20230;-68
2022/11/27 11:37:22;;;;;;;46.37;25.73;;;7.60;99.90;;;;;;5089812;28;20211;-69
2022/11/27 11:39:56;;;;;;;41.47;24.13;;;7.60;99.90;;;;;;5082682;28;20223;-73
2022/11/27 11:42:27;;;;;;;43.30;23.83;;;7.60;99.90;;;;;;5089527;28;20606;-67
2022/11/27 11:45:05;;;;;;;36.10;24.17;;;7.60;99.90;;;;;;5092746;28;20188;-69
2022/11/27 11:47:35;;;;;;;39.90;25.07;;;7.70;99.90;;;;;;5092781;28;20216;-68
2022/11/27 11:50:04;;;;;;;40.53;24.63;;;7.70;99.90;;;;;;5090683;28;20967;-68
2022/11/27 11:52:50;;;;;;;41.23;25.07;;;7.70;99.90;;;;;;5082054;28;20711;-68
2022/11/27 11:55:22;;;;;;;43.53;25.80;;;7.80;99.90;;;;;;5087925;28;20550;-66
2022/11/27 11:58:26;;;;;;;40.30;24.67;;;7.80;99.90;;;;;;5072362;28;20571;-69
2022/11/27 12:01:10;;;;;;;46.33;25.03;;;7.80;99.90;;;;;;5073768;28;20236;-67
2022/11/27 12:04:06;;;;;;;35.70;22.30;;;7.80;99.90;;;;;;5077948;28;20196;-67
2022/11/27 12:06:51;;;;;;;35.60;22.57;;;7.80;99.90;;;;;;5092172;28;20243;-69
2022/11/27 12:09:31;;;;;;;37.50;20.93;;;7.70;99.90;;;;;;5092328;28;20200;-69
2022/11/27 12:12:11;;;;;;;36.70;21.83;;;7.60;99.90;;;;;;5085280;28;20697;-68
2022/11/27 12:14:46;;;;;;;37.23;22.87;;;7.60;99.90;;;;;;5092280;28;20204;-67
2022/11/27 12:17:29;;;;;;;34.90;21.63;;;7.60;99.90;;;;;;5092253;28;20224;-67
2022/11/27 12:20:17;;;;;;;34.47;22.70;;;7.60;99.90;;;;;;5092443;28;20198;-67
2022/11/27 12:23:14;;;;;;;39.77;23.40;;;7.60;99.90;;;;;;5090866;28;20193;-72
2022/11/27 12:25:49;;;;;;;37.63;23.83;;;7.70;99.90;;;;;;5092367;28;20658;-69
2022/11/27 12:28:35;;;;;;;44.17;25.67;;;7.70;99.90;;;;;;5092152;28;20322;-69
2022/11/27 12:31:11;;;;;;;40.67;26.07;;;7.70;99.90;;;;;;5092183;28;20706;-69
2022/11/27 12:33:58;;;;;;;38.50;25.87;;;7.60;99.90;;;;;;5091914;28;20196;-67
2022/11/27 12:36:50;;;;;;;43.93;25.50;;;7.60;99.90;;;;;;5092033;28;20196;-67
2022/11/27 12:39:25;;;;;;;30.30;20.00;;;7.60;99.90;;;;;;5091949;28;20743;-67
2022/11/27 12:42:03;;;;;;;29.43;17.57;;;7.60;99.90;;;;;;5091553;28;20245;-68
2022/11/27 12:44:43;;;;;;;26.30;17.63;;;7.50;99.90;;;;;;5091947;28;20283;-67
2022/11/27 12:47:18;;;;;;;29.40;19.47;;;7.50;99.90;;;;;;5091891;28;20200;-67
2022/11/27 12:49:51;;;;;;;33.87;21.00;;;7.50;99.90;;;;;;5092063;28;20234;-67
2022/11/27 12:52:23;;;;;;;55.87;33.37;;;7.50;99.90;;;;;;5091928;28;20496;-68
2022/11/27 12:54:55;;;;;;;30.97;20.60;;;7.50;99.90;;;;;;5091480;28;20197;-67
2022/11/27 12:57:32;;;;;;;33.40;20.77;;;7.40;99.90;;;;;;5091874;28;20596;-68
2022/11/27 13:00:04;;;;;;;34.33;21.80;;;7.40;99.90;;;;;;5091637;28;20313;-69
2022/11/27 13:02:38;;;;;;;29.43;20.30;;;7.30;99.90;;;;;;5091693;28;21061;-67
2022/11/27 13:05:12;;;;;;;32.80;21.87;;;7.40;99.90;;;;;;5087853;28;20253;-68
2022/11/27 13:07:46;;;;;;;29.50;18.73;;;7.40;99.90;;;;;;5073187;28;20256;-68
2022/11/27 13:10:22;;;;;;;30.83;19.80;;;7.50;99.90;;;;;;5091334;28;20211;-69
2022/11/27 13:13:00;;;;;;;30.50;20.13;;;7.50;99.90;;;;;;5091626;28;20546;-69
2022/11/27 13:15:34;;;;;;;35.30;22.10;;;7.60;99.90;;;;;;5091673;28;20531;-68
2022/11/27 13:18:11;;;;;;;35.20;22.60;;;7.60;99.90;;;;;;5091655;28;20549;-68
2022/11/27 13:20:41;;;;;;;35.03;23.13;;;7.70;99.90;;;;;;5091801;28;20195;-68
2022/11/27 13:23:10;;;;;;;35.87;24.40;;;7.70;99.90;;;;;;5087816;28;20225;-69
2022/11/27 13:25:44;;;;;;;35.67;23.97;;;7.80;99.90;;;;;;5076622;28;20620;-68
2022/11/27 13:28:23;;;;;;;34.00;22.67;;;7.80;99.90;;;;;;5091216;28;20226;-67
2022/11/27 13:30:53;;;;;;;34.50;22.73;;;7.80;99.90;;;;;;5071574;28;20201;-68
2022/11/27 13:33:33;;;;;;;33.63;21.57;;;7.80;99.90;;;;;;5080467;28;20560;-67
2022/11/27 13:36:06;;;;;;;33.93;21.90;;;7.80;99.90;;;;;;5080854;28;20657;-67
2022/11/27 13:38:40;;;;;;;32.70;22.00;;;7.80;99.90;;;;;;5091629;28;20690;-67
2022/11/27 13:41:19;;;;;;;40.67;23.73;;;7.90;99.90;;;;;;5090899;28;20647;-68
2022/11/27 13:43:49;;;;;;;38.87;23.97;;;8.00;99.90;;;;;;5091279;28;20208;-67
2022/11/27 13:46:23;;;;;;;37.00;23.63;;;8.00;99.90;;;;;;5084386;28;20203;-68
2022/11/27 13:48:56;;;;;;;33.80;22.30;;;8.10;99.90;;;;;;5075268;28;20223;-68
2022/11/27 13:51:29;;;;;;;34.20;22.13;;;8.00;99.90;;;;;;5090838;28;20189;-67
2022/11/27 13:54:09;;;;;;;35.20;23.53;;;7.90;99.90;;;;;;5094252;28;20279;-69
2022/11/27 13:56:38;;;;;;;32.53;21.00;;;7.80;99.90;;;;;;5095099;28;20188;-68
2022/11/27 13:59:17;;;;;;;35.87;23.10;;;7.70;99.90;;;;;;5094985;28;20189;-68
2022/11/27 14:01:56;;;;;;;34.83;22.30;;;7.80;99.90;;;;;;5094790;28;20192;-69
2022/11/27 14:04:25;;;;;;;36.20;22.63;;;7.80;99.90;;;;;;5094615;28;20200;-67
2022/11/27 14:07:02;;;;;;;36.63;22.43;;;7.70;99.90;;;;;;5094607;28;20232;-68
2022/11/27 14:09:37;;;;;;;34.93;22.20;;;7.60;99.90;;;;;;5091626;28;20694;-69
2022/11/27 14:12:22;;;;;;;33.13;22.00;;;7.60;99.90;;;;;;5034399;28;20726;-69
2022/11/27 14:15:04;;;;;;;27.10;19.00;;;7.70;99.90;;;;;;5035431;28;20198;-69
2022/11/27 14:17:39;;;;;;;31.53;19.60;;;7.70;99.90;;;;;;5034523;28;20199;-69
2022/11/27 14:20:23;;;;;;;30.87;20.07;;;7.60;99.90;;;;;;5033919;28;20198;-70
2022/11/27 14:22:54;;;;;;;31.27;19.27;;;7.60;99.90;;;;;;5035203;28;20620;-71
2022/11/27 14:25:41;;;;;;;27.77;18.13;;;7.70;99.90;;;;;;5014663;28;20226;-70
2022/11/27 14:28:15;;;;;;;27.03;18.63;;;7.70;99.90;;;;;;5014524;28;20309;-68
2022/11/27 14:30:47;;;;;;;22.13;15.77;;;7.70;99.90;;;;;;5014798;28;20281;-69
2022/11/27 14:33:18;;;;;;;24.30;15.90;;;7.70;99.90;;;;;;5013366;28;20658;-69
2022/11/27 14:35:49;;;;;;;26.10;16.63;;;7.60;99.90;;;;;;5014394;28;20223;-70
2022/11/27 14:38:19;;;;;;;29.83;17.57;;;7.60;99.90;;;;;;5014532;28;20199;-71
2022/11/27 14:40:48;;;;;;;95.17;50.33;;;7.60;99.90;;;;;;5014320;28;20294;-70
2022/11/27 14:43:18;;;;;;;29.53;19.70;;;7.60;99.90;;;;;;5014463;28;20253;-70
2022/11/27 14:45:49;;;;;;;32.93;19.63;;;7.60;99.90;;;;;;5014265;28;20214;-70
2022/11/27 14:48:23;;;;;;;26.37;17.93;;;7.60;99.90;;;;;;5014202;28;20211;-68
2022/11/27 14:50:52;;;;;;;26.10;16.50;;;7.60;99.90;;;;;;5014461;28;20210;-70
2022/11/27 14:53:24;;;;;;;25.20;16.27;;;7.50;99.90;;;;;;5014202;28;20207;-69
2022/11/27 14:55:55;;;;;;;23.90;15.97;;;7.40;99.90;;;;;;5014228;28;20201;-68
2022/11/27 14:58:26;;;;;;;22.00;15.70;;;7.40;99.90;;;;;;5014159;28;20206;-68
2022/11/27 15:00:58;;;;;;;24.30;14.90;;;7.40;99.90;;;;;;5013898;28;20723;-69
2022/11/27 15:03:27;;;;;;;24.93;15.20;;;7.40;99.90;;;;;;5013872;28;20277;-69
2022/11/27 15:05:58;;;;;;;24.37;15.17;;;7.40;99.90;;;;;;5013849;28;20227;-68
2022/11/27 15:08:31;;;;;;;25.57;15.33;;;7.30;99.90;;;;;;5013612;28;20242;-68
2022/11/27 15:11:02;;;;;;;61.27;36.03;;;7.30;99.90;;;;;;5013772;28;20673;-69
2022/11/27 15:13:32;;;;;;;82.57;46.93;;;7.30;99.90;;;;;;5013672;28;20665;-72
2022/11/27 15:16:04;;;;;;;69.70;43.27;;;7.40;99.90;;;;;;5013869;28;20253;-68
2022/11/27 15:18:37;;;;;;;109.47;61.67;;;7.40;99.90;;;;;;5013697;28;20203;-68
2022/11/27 15:21:11;;;;;;;107.87;63.23;;;7.40;99.90;;;;;;5013711;28;20353;-70
2022/11/27 15:23:46;;;;;;;78.37;50.10;;;7.40;99.90;;;;;;5013370;28;20213;-70
2022/11/27 15:26:27;;;;;;;48.83;32.93;;;7.50;99.90;;;;;;5013703;28;20289;-68
2022/11/27 15:28:57;;;;;;;43.93;29.73;;;7.50;99.90;;;;;;5013359;28;20249;-70
2022/11/27 15:31:29;;;;;;;81.33;52.57;;;7.50;99.90;;;;;;5012587;28;20226;-69
2022/11/27 15:34:00;;;;;;;61.40;40.30;;;7.40;99.90;;;;;;5013205;28;20203;-72
2022/11/27 15:36:35;;;;;;;61.03;40.93;;;7.50;99.90;;;;;;5013467;28;20199;-67
2022/11/27 15:39:18;;;;;;;61.10;34.23;;;7.40;99.90;;;;;;5013176;28;20202;-71
2022/11/27 15:41:52;;;;;;;46.97;28.53;;;7.50;99.90;;;;;;5013117;28;20201;-69
2022/11/27 15:44:20;;;;;;;44.37;26.13;;;7.50;99.90;;;;;;5013193;28;20564;-71
2022/11/27 15:46:50;;;;;;;45.20;27.53;;;7.40;99.90;;;;;;5013003;28;20200;-69
2022/11/27 15:49:19;;;;;;;46.00;29.60;;;7.40;99.90;;;;;;5012957;28;20226;-68
2022/11/27 15:51:47;;;;;;;80.90;44.10;;;7.30;99.90;;;;;;5012896;28;20200;-72
2022/11/27 15:54:17;;;;;;;94.73;48.00;;;7.30;99.90;;;;;;5012754;28;20195;-69
2022/11/27 15:56:46;;;;;;;83.90;45.00;;;7.30;99.90;;;;;;5012935;28;20195;-69
2022/11/27 15:59:16;;;;;;;86.53;46.40;;;7.30;99.90;;;;;;5012966;28;20219;-68
2022/11/27 16:01:45;;;;;;;271.47;126.90;;;7.30;99.90;;;;;;5012921;28;20197;-68
2022/11/27 16:04:13;;;;;;;297.93;144.10;;;7.30;99.90;;;;;;5012868;28;20233;-67
2022/11/27 16:06:42;;;;;;;205.80;114.07;;;7.30;99.90;;;;;;5012639;28;20321;-69
2022/11/27 16:09:10;;;;;;;175.83;101.23;;;7.30;99.90;;;;;;5012585;28;20219;-68
2022/11/27 16:11:40;;;;;;;159.93;91.30;;;7.30;99.90;;;;;;5012707;28;20202;-68
2022/11/27 16:14:08;;;;;;;125.60;71.87;;;7.30;99.90;;;;;;5012617;28;20203;-71
2022/11/27 16:16:37;;;;;;;118.27;70.37;;;7.30;99.90;;;;;;5010772;28;20210;-70
2022/11/27 16:19:06;;;;;;;128.47;71.03;;;7.30;99.90;;;;;;5012565;28;20237;-68
2022/11/27 16:21:35;;;;;;;108.20;64.03;;;7.20;99.90;;;;;;5012393;28;20675;-70
2022/11/27 16:24:06;;;;;;;76.53;45.53;;;7.20;99.90;;;;;;5012383;28;20601;-69
2022/11/27 16:26:35;;;;;;;66.17;39.03;;;7.20;99.90;;;;;;5011170;28;20215;-69
2022/11/27 16:29:05;;;;;;;60.37;33.27;;;7.20;99.90;;;;;;5012226;28;20209;-68
2022/11/27 16:31:34;;;;;;;50.73;27.20;;;7.10;99.90;;;;;;5012498;28;20294;-70
2022/11/27 16:34:04;;;;;;;43.23;25.90;;;7.00;99.90;;;;;;5012320;28;20214;-70
2022/11/27 16:36:33;;;;;;;37.10;22.30;;;7.00;99.90;;;;;;5010935;28;20265;-70
2022/11/27 16:39:02;;;;;;;40.40;23.20;;;6.90;99.90;;;;;;5010875;28;20207;-68
2022/11/27 16:41:31;;;;;;;55.27;31.80;;;6.90;99.90;;;;;;5010960;28;20218;-71
2022/11/27 16:43:59;;;;;;;56.53;33.47;;;6.90;99.90;;;;;;5012222;28;20204;-72
2022/11/27 16:46:30;;;;;;;46.83;27.23;;;6.90;99.90;;;;;;5012176;28;20658;-72
2022/11/27 16:49:00;;;;;;;44.47;25.77;;;7.00;99.90;;;;;;5010606;28;20203;-67
2022/11/27 16:51:32;;;;;;;48.47;26.70;;;7.00;99.90;;;;;;5010770;28;20210;-68
2022/11/27 16:54:02;;;;;;;51.60;32.40;;;6.90;99.90;;;;;;5011976;28;20715;-71
2022/11/27 16:56:33;;;;;;;47.53;31.97;;;6.90;99.90;;;;;;5012192;28;20207;-71
2022/11/27 16:59:08;;;;;;;39.80;23.40;;;6.90;99.90;;;;;;5010642;28;20207;-69
2022/11/27 17:01:41;;;;;;;34.07;22.13;;;6.80;99.90;;;;;;5010590;28;20207;-70
2022/11/27 17:04:17;;;;;;;41.83;28.47;;;6.80;99.90;;;;;;5011984;28;20212;-71
2022/11/27 17:06:46;;;;;;;37.23;23.23;;;6.80;99.90;;;;;;5011658;28;20306;-67
2022/11/27 17:09:15;;;;;;;39.57;24.20;;;6.80;99.90;;;;;;5011811;28;20203;-73
2022/11/27 17:11:47;;;;;;;36.97;24.13;;;6.80;99.90;;;;;;5011996;28;20569;-70
2022/11/27 17:14:17;;;;;;;40.30;25.73;;;6.70;99.90;;;;;;5010612;28;20213;-69
2022/11/27 17:16:47;;;;;;;41.47;25.57;;;6.70;99.90;;;;;;5011790;28;20673;-72
2022/11/27 17:19:16;;;;;;;44.20;27.50;;;6.70;99.90;;;;;;5010934;28;20229;-71
2022/11/27 17:21:46;;;;;;;48.23;31.30;;;6.70;99.90;;;;;;5010426;28;20219;-68
2022/11/27 17:24:16;;;;;;;53.13;36.33;;;6.70;99.90;;;;;;5010393;28;20223;-69
2022/11/27 17:26:46;;;;;;;49.07;30.23;;;6.70;99.90;;;;;;5010668;28;20837;-68
2022/11/27 17:29:16;;;;;;;37.87;26.23;;;6.70;99.90;;;;;;5014041;28;20214;-69
2022/11/27 17:31:45;;;;;;;42.27;27.57;;;6.70;99.90;;;;;;5015640;28;20224;-71
2022/11/27 17:34:15;;;;;;;44.33;28.37;;;6.70;99.90;;;;;;5014391;28;20293;-67
2022/11/27 17:36:45;;;;;;;45.37;29.07;;;6.70;99.90;;;;;;5014290;28;20214;-69
2022/11/27 17:39:15;;;;;;;47.97;29.43;;;6.70;99.90;;;;;;5015538;28;20692;-68
2022/11/27 17:41:44;;;;;;;51.73;32.53;;;6.60;99.90;;;;;;5015573;28;20302;-69
2022/11/27 17:44:13;;;;;;;59.00;33.23;;;6.70;99.90;;;;;;5015372;28;20301;-70
2022/11/27 17:46:43;;;;;;;101.40;50.77;;;6.60;99.90;;;;;;5015216;28;20227;-68
2022/11/27 17:49:14;;;;;;;76.57;44.97;;;6.60;99.90;;;;;;5014134;28;20272;-70
2022/11/27 17:51:44;;;;;;;67.50;37.77;;;6.70;99.90;;;;;;5014034;28;20230;-68
2022/11/27 17:54:14;;;;;;;59.70;37.43;;;6.70;99.90;;;;;;5014102;28;20253;-72
2022/11/27 17:56:42;;;;;;;64.10;38.87;;;6.70;99.90;;;;;;5015342;28;20610;-69
2022/11/27 17:59:11;;;;;;;70.30;43.27;;;6.70;99.90;;;;;;5015053;28;20635;-70
2022/11/27 18:01:40;;;;;;;65.90;40.47;;;6.70;99.90;;;;;;5013785;28;20215;-70
2022/11/27 18:04:09;;;;;;;216.83;68.43;;;6.70;99.90;;;;;;5014995;28;20281;-69
2022/11/27 18:06:40;;;;;;;55.47;34.90;;;6.60;99.90;;;;;;5013430;28;20230;-68
2022/11/27 18:09:10;;;;;;;144.03;56.87;;;6.70;99.90;;;;;;5014820;28;20230;-72
2022/11/27 18:11:39;;;;;;;223.57;87.03;;;6.60;99.90;;;;;;5014641;28;20241;-69
2022/11/27 18:14:12;;;;;;;52.93;31.83;;;6.70;99.90;;;;;;5013549;28;20219;-67
2022/11/27 18:16:41;;;;;;;56.23;32.73;;;6.70;99.90;;;;;;5013575;28;20227;-70
2022/11/27 18:19:11;;;;;;;53.17;31.23;;;6.60;99.90;;;;;;5014587;28;20210;-69
2022/11/27 18:21:40;;;;;;;60.03;35.03;;;6.60;99.90;;;;;;5014645;28;20213;-67
2022/11/27 18:24:09;;;;;;;64.93;36.07;;;6.50;99.90;;;;;;5015158;28;20289;-72
2022/11/27 18:26:53;;;;;;;77.33;39.33;;;6.40;99.90;;;;;;5014783;28;20563;-69
2022/11/27 18:29:38;;;;;;;61.93;36.50;;;6.40;99.90;;;;;;5014502;28;20198;-69
2022/11/27 18:32:07;;;;;;;61.70;37.53;;;6.50;99.90;;;;;;5014460;28;20237;-73
2022/11/27 18:34:36;;;;;;;61.60;38.03;;;6.50;99.90;;;;;;5014506;28;20232;-71
2022/11/27 18:37:06;;;;;;;61.53;38.07;;;6.50;99.90;;;;;;5014788;28;20202;-68
2022/11/27 18:39:35;;;;;;;62.87;37.17;;;6.40;99.90;;;;;;5013793;28;20211;-68
2022/11/27 18:42:05;;;;;;;62.60;36.57;;;6.40;99.90;;;;;;5014465;28;20206;-68
2022/11/27 18:44:34;;;;;;;48.27;30.93;;;6.40;99.90;;;;;;5014203;28;20199;-68
2022/11/27 18:47:12;;;;;;;55.73;34.23;;;6.40;99.90;;;;;;5013168;28;20257;-68
2022/11/27 18:49:42;;;;;;;57.67;33.33;;;6.40;99.90;;;;;;5013005;28;20203;-68
2022/11/27 18:52:12;;;;;;;85.70;46.60;;;6.40;99.90;;;;;;5014106;28;20251;-68
2022/11/27 18:54:40;;;;;;;75.03;43.77;;;6.40;99.90;;;;;;5012693;28;20252;-69
2022/11/27 18:57:09;;;;;;;68.53;39.30;;;6.40;99.90;;;;;;5012744;28;20195;-68
2022/11/27 18:59:38;;;;;;;57.77;36.50;;;6.40;99.90;;;;;;5014132;28;20211;-68
2022/11/27 19:02:07;;;;;;;54.53;34.53;;;6.50;99.90;;;;;;5012726;28;20203;-67
2022/11/27 19:04:36;;;;;;;66.60;40.90;;;6.50;99.90;;;;;;5013883;28;20233;-68
2022/11/27 19:07:05;;;;;;;91.33;51.53;;;6.50;99.90;;;;;;5013657;28;20273;-67
2022/11/27 19:09:34;;;;;;;73.67;44.53;;;6.50;99.90;;;;;;5013897;28;20673;-68
2022/11/27 19:12:04;;;;;;;73.97;42.53;;;6.50;99.90;;;;;;5012542;28;20598;-67
2022/11/27 19:14:33;;;;;;;63.60;39.83;;;6.60;99.90;;;;;;5012449;28;20627;-68
2022/11/27 19:17:03;;;;;;;47.30;30.67;;;6.50;99.90;;;;;;5028858;28;20202;-68
2022/11/27 19:19:33;;;;;;;49.17;30.70;;;6.30;99.90;;;;;;5012212;28;20203;-68
2022/11/27 19:22:21;;;;;;;50.47;31.73;;;6.30;99.90;;;;;;5012194;28;20325;-69
2022/11/27 19:24:51;;;;;;;53.57;34.83;;;6.40;99.90;;;;;;5012135;28;20642;-69
2022/11/27 19:27:19;;;;;;;48.20;30.90;;;6.40;99.90;;;;;;5013494;28;20395;-68
2022/11/27 19:29:51;;;;;;;54.53;32.77;;;6.40;99.90;;;;;;5013399;28;20199;-68
2022/11/27 19:32:22;;;;;;;46.43;27.07;;;6.40;99.90;;;;;;5011994;28;20291;-67
2022/11/27 19:34:51;;;;;;;43.83;27.27;;;6.30;99.90;;;;;;5011936;28;20669;-68
2022/11/27 19:37:20;;;;;;;41.13;23.83;;;6.20;99.90;;;;;;5013410;28;20209;-67
2022/11/27 19:40:04;;;;;;;47.27;28.83;;;6.30;99.90;;;;;;5013128;28;20575;-67
2022/11/27 19:42:32;;;;;;;61.93;35.03;;;6.30;99.90;;;;;;5011995;28;20703;-68
2022/11/27 19:45:01;;;;;;;75.77;40.97;;;6.40;99.90;;;;;;5013154;28;20203;-67
2022/11/27 19:47:32;;;;;;;83.10;42.13;;;6.40;99.90;;;;;;5011745;28;20197;-68
2022/11/27 19:50:01;;;;;;;92.43;45.43;;;6.40;99.90;;;;;;5012243;28;20199;-70
2022/11/27 19:52:29;;;;;;;77.90;43.13;;;6.30;99.90;;;;;;5011600;28;20238;-67
2022/11/27 19:54:58;;;;;;;85.40;42.70;;;6.30;99.90;;;;;;5011515;28;20209;-67
2022/11/27 19:57:28;;;;;;;83.93;43.30;;;6.30;99.90;;;;;;5013147;28;20252;-68
2022/11/27 19:59:56;;;;;;;80.20;41.63;;;6.30;99.90;;;;;;5011430;28;20298;-70
2022/11/27 20:02:25;;;;;;;74.27;40.93;;;6.30;99.90;;;;;;5011461;28;20301;-69
2022/11/27 20:04:54;;;;;;;68.53;40.27;;;6.30;99.90;;;;;;5011534;28;20582;-68
2022/11/27 20:07:22;;;;;;;70.40;40.13;;;6.30;99.90;;;;;;5012321;28;20231;-69
2022/11/27 20:09:51;;;;;;;68.70;40.87;;;6.30;99.90;;;;;;5011413;28;20261;-70
2022/11/27 20:12:20;;;;;;;73.50;41.07;;;6.30;99.90;;;;;;5012370;28;20696;-70
2022/11/27 20:14:50;;;;;;;77.03;40.37;;;6.30;99.90;;;;;;5011302;28;20261;-68
2022/11/27 20:17:18;;;;;;;71.50;39.33;;;6.30;99.90;;;;;;5011173;28;20696;-67
2022/11/27 20:19:47;;;;;;;59.67;35.53;;;6.40;99.90;;;;;;5012575;28;20203;-68
2022/11/27 20:22:15;;;;;;;54.43;32.73;;;6.30;99.90;;;;;;5011154;28;20206;-67
2022/11/27 20:24:44;;;;;;;42.93;26.07;;;6.30;99.90;;;;;;5011137;28;20206;-69
2022/11/27 20:27:35;;;;;;;46.13;26.23;;;6.30;99.90;;;;;;5010996;28;20241;-68
2022/11/27 20:30:07;;;;;;;46.87;26.93;;;6.40;99.90;;;;;;5012380;28;20226;-68
2022/11/27 20:32:35;;;;;;;55.77;32.93;;;6.40;99.90;;;;;;5012103;28;20262;-68
2022/11/27 20:35:04;;;;;;;76.83;40.77;;;6.40;99.90;;;;;;5012211;28;20226;-68
2022/11/27 20:37:33;;;;;;;59.47;33.73;;;6.40;99.90;;;;;;5012322;28;20226;-69
2022/11/27 20:40:02;;;;;;;59.23;31.23;;;6.50;99.90;;;;;;5012286;28;20205;-68
2022/11/27 20:42:31;;;;;;;52.20;30.50;;;6.50;99.90;;;;;;5010714;28;20202;-68
2022/11/27 20:45:03;;;;;;;46.70;28.60;;;6.50;99.90;;;;;;5012032;28;20188;-68
2022/11/27 20:47:34;;;;;;;43.97;27.47;;;6.40;99.90;;;;;;5010746;28;20238;-68
2022/11/27 20:50:03;;;;;;;49.17;29.00;;;6.40;99.90;;;;;;5012037;28;20207;-68
2022/11/27 20:52:32;;;;;;;43.47;27.23;;;6.40;99.90;;;;;;5010648;28;20234;-68
2022/11/27 20:55:00;;;;;;;41.37;25.57;;;6.30;99.90;;;;;;5011951;28;20313;-68
2022/11/27 20:57:29;;;;;;;43.77;26.30;;;6.40;99.90;;;;;;5010531;28;20688;-68
2022/11/27 20:59:57;;;;;;;40.83;26.27;;;6.30;99.90;;;;;;5010624;28;20203;-68
2022/11/27 21:02:26;;;;;;;42.13;27.13;;;6.40;99.90;;;;;;5011741;28;20201;-68
2022/11/27 21:04:56;;;;;;;46.93;30.57;;;6.30;99.90;;;;;;5010565;28;20695;-70
2022/11/27 21:07:24;;;;;;;43.47;28.27;;;6.40;99.90;;;;;;5011503;28;20235;-67
2022/11/27 21:09:52;;;;;;;49.23;28.47;;;6.40;99.90;;;;;;5011712;28;20704;-69
2022/11/27 21:12:21;;;;;;;46.10;28.87;;;6.40;99.90;;;;;;5011450;28;20585;-68
2022/11/27 21:14:49;;;;;;;54.53;31.43;;;6.30;99.90;;;;;;5011527;28;20203;-69
2022/11/27 21:17:18;;;;;;;50.03;28.93;;;6.30;99.90;;;;;;5010283;28;20214;-68
2022/11/27 21:19:48;;;;;;;43.37;25.53;;;6.20;99.90;;;;;;5010283;28;20230;-68
2022/11/27 21:22:18;;;;;;;40.90;22.87;;;6.10;99.90;;;;;;5011815;28;20213;-68
2022/11/27 21:24:49;;;;;;;40.63;25.93;;;6.10;99.90;;;;;;5010461;28;20624;-68